sensor_id;sensor_type;location;lat;lon;timestamp;temperature;humidity
13328;DHT22;6733;51.044;3.746;2024-03-08T00:00:09;7.00;69.80
13328;DHT22;6733;51.044;3.746;2024-03-08T00:02:47;6.90;69.70
13328;DHT22;6733;51.044;3.746;2024-03-08T00:05:14;7.00;69.60
13328;DHT22;6733;51.044;3.746;2024-03-08T00:07:41;7.00;69.30
13328;DHT22;6733;51.044;3.746;2024-03-08T00:10:09;6.90;69.30
13328;DHT22;6733;51.044;3.746;2024-03-08T00:12:43;6.90;69.30
13328;DHT22;6733;51.044;3.746;2024-03-08T00:15:10;6.90;69.30
13328;DHT22;6733;51.044;3.746;2024-03-08T00:17:36;6.90;69.20
13328;DHT22;6733;51.044;3.746;2024-03-08T00:20:04;6.90;69.20
13328;DHT22;6733;51.044;3.746;2024-03-08T00:22:31;6.80;69.30
13328;DHT22;6733;51.044;3.746;2024-03-08T00:24:57;6.80;69.30
13328;DHT22;6733;51.044;3.746;2024-03-08T00:27:23;6.80;69.30
13328;DHT22;6733;51.044;3.746;2024-03-08T00:29:49;6.80;69.40
13328;DHT22;6733;51.044;3.746;2024-03-08T00:32:15;6.80;69.40
13328;DHT22;6733;51.044;3.746;2024-03-08T00:34:43;6.70;69.60
13328;DHT22;6733;51.044;3.746;2024-03-08T00:37:09;6.70;69.90
13328;DHT22;6733;51.044;3.746;2024-03-08T00:39:36;6.70;69.70
13328;DHT22;6733;51.044;3.746;2024-03-08T00:42:02;6.70;69.80
13328;DHT22;6733;51.044;3.746;2024-03-08T00:44:29;6.70;70.00
13328;DHT22;6733;51.044;3.746;2024-03-08T00:46:55;6.70;70.10
13328;DHT22;6733;51.044;3.746;2024-03-08T00:49:22;6.70;70.10
13328;DHT22;6733;51.044;3.746;2024-03-08T00:51:48;6.70;70.20
13328;DHT22;6733;51.044;3.746;2024-03-08T00:54:14;6.70;70.40
13328;DHT22;6733;51.044;3.746;2024-03-08T00:56:42;6.70;70.70
13328;DHT22;6733;51.044;3.746;2024-03-08T00:59:08;6.70;70.70
13328;DHT22;6733;51.044;3.746;2024-03-08T01:01:34;6.70;70.80
13328;DHT22;6733;51.044;3.746;2024-03-08T01:04:00;6.70;70.90
13328;DHT22;6733;51.044;3.746;2024-03-08T01:06:27;6.70;71.00
13328;DHT22;6733;51.044;3.746;2024-03-08T01:08:53;6.70;71.00
13328;DHT22;6733;51.044;3.746;2024-03-08T01:11:19;6.60;71.30
13328;DHT22;6733;51.044;3.746;2024-03-08T01:13:45;6.60;71.30
13328;DHT22;6733;51.044;3.746;2024-03-08T01:16:13;6.60;71.50
13328;DHT22;6733;51.044;3.746;2024-03-08T01:18:39;6.60;71.40
13328;DHT22;6733;51.044;3.746;2024-03-08T01:21:05;6.60;71.50
13328;DHT22;6733;51.044;3.746;2024-03-08T01:23:32;6.60;71.60
13328;DHT22;6733;51.044;3.746;2024-03-08T01:25:58;6.60;71.80
13328;DHT22;6733;51.044;3.746;2024-03-08T01:28:25;6.60;71.90
13328;DHT22;6733;51.044;3.746;2024-03-08T01:30:51;6.60;71.90
13328;DHT22;6733;51.044;3.746;2024-03-08T01:33:23;6.60;71.90
13328;DHT22;6733;51.044;3.746;2024-03-08T01:35:49;6.50;72.00
13328;DHT22;6733;51.044;3.746;2024-03-08T01:38:16;6.50;72.00
13328;DHT22;6733;51.044;3.746;2024-03-08T01:40:42;6.50;72.10
13328;DHT22;6733;51.044;3.746;2024-03-08T01:43:19;6.50;72.00
13328;DHT22;6733;51.044;3.746;2024-03-08T01:45:45;6.40;72.10
13328;DHT22;6733;51.044;3.746;2024-03-08T01:48:12;6.50;72.00
13328;DHT22;6733;51.044;3.746;2024-03-08T01:50:39;6.40;72.00
13328;DHT22;6733;51.044;3.746;2024-03-08T01:53:06;6.40;72.00
13328;DHT22;6733;51.044;3.746;2024-03-08T01:55:32;6.30;72.10
13328;DHT22;6733;51.044;3.746;2024-03-08T01:57:59;6.40;72.10
13328;DHT22;6733;51.044;3.746;2024-03-08T02:00:26;6.40;72.00
13328;DHT22;6733;51.044;3.746;2024-03-08T02:02:54;6.40;72.00
13328;DHT22;6733;51.044;3.746;2024-03-08T02:05:21;6.40;71.90
13328;DHT22;6733;51.044;3.746;2024-03-08T02:07:47;6.30;71.90
13328;DHT22;6733;51.044;3.746;2024-03-08T02:10:13;6.30;71.80
13328;DHT22;6733;51.044;3.746;2024-03-08T02:12:40;6.30;71.90
13328;DHT22;6733;51.044;3.746;2024-03-08T02:15:06;6.30;71.70
13328;DHT22;6733;51.044;3.746;2024-03-08T02:17:33;6.30;71.70
13328;DHT22;6733;51.044;3.746;2024-03-08T02:20:02;6.20;71.70
13328;DHT22;6733;51.044;3.746;2024-03-08T02:22:30;6.20;71.80
13328;DHT22;6733;51.044;3.746;2024-03-08T02:24:58;6.20;71.70
13328;DHT22;6733;51.044;3.746;2024-03-08T02:27:24;6.20;71.60
13328;DHT22;6733;51.044;3.746;2024-03-08T02:29:57;6.10;71.60
13328;DHT22;6733;51.044;3.746;2024-03-08T02:32:23;6.20;71.50
13328;DHT22;6733;51.044;3.746;2024-03-08T02:35:14;6.10;71.60
13328;DHT22;6733;51.044;3.746;2024-03-08T02:38:05;6.10;71.50
13328;DHT22;6733;51.044;3.746;2024-03-08T02:40:56;6.00;71.50
13328;DHT22;6733;51.044;3.746;2024-03-08T02:43:47;6.00;71.30
13328;DHT22;6733;51.044;3.746;2024-03-08T02:46:38;6.00;71.10
13328;DHT22;6733;51.044;3.746;2024-03-08T02:49:29;6.00;71.10
13328;DHT22;6733;51.044;3.746;2024-03-08T02:52:20;5.90;71.00
13328;DHT22;6733;51.044;3.746;2024-03-08T02:55:11;6.00;70.80
13328;DHT22;6733;51.044;3.746;2024-03-08T02:58:05;5.90;70.70
13328;DHT22;6733;51.044;3.746;2024-03-08T03:00:34;5.90;70.70
13328;DHT22;6733;51.044;3.746;2024-03-08T03:03:00;5.90;70.50
13328;DHT22;6733;51.044;3.746;2024-03-08T03:05:29;5.90;70.40
13328;DHT22;6733;51.044;3.746;2024-03-08T03:07:56;5.90;70.40
13328;DHT22;6733;51.044;3.746;2024-03-08T03:10:24;5.90;70.40
13328;DHT22;6733;51.044;3.746;2024-03-08T03:12:50;5.80;70.20
13328;DHT22;6733;51.044;3.746;2024-03-08T03:15:17;5.80;70.00
13328;DHT22;6733;51.044;3.746;2024-03-08T03:17:50;5.90;70.00
13328;DHT22;6733;51.044;3.746;2024-03-08T03:20:17;5.90;69.70
13328;DHT22;6733;51.044;3.746;2024-03-08T03:22:52;5.80;69.70
13328;DHT22;6733;51.044;3.746;2024-03-08T03:25:21;5.80;69.60
13328;DHT22;6733;51.044;3.746;2024-03-08T03:27:53;5.90;69.60
13328;DHT22;6733;51.044;3.746;2024-03-08T03:30:23;5.80;69.30
13328;DHT22;6733;51.044;3.746;2024-03-08T03:32:52;5.80;69.50
13328;DHT22;6733;51.044;3.746;2024-03-08T03:35:21;5.70;69.40
13328;DHT22;6733;51.044;3.746;2024-03-08T03:37:47;5.70;69.40
13328;DHT22;6733;51.044;3.746;2024-03-08T03:40:49;5.70;69.40
13328;DHT22;6733;51.044;3.746;2024-03-08T03:43:18;5.70;69.30
13328;DHT22;6733;51.044;3.746;2024-03-08T03:45:44;5.80;69.10
13328;DHT22;6733;51.044;3.746;2024-03-08T03:48:10;5.80;68.80
13328;DHT22;6733;51.044;3.746;2024-03-08T03:50:37;5.70;68.80
13328;DHT22;6733;51.044;3.746;2024-03-08T03:53:03;5.70;68.70
13328;DHT22;6733;51.044;3.746;2024-03-08T03:55:30;5.70;68.90
13328;DHT22;6733;51.044;3.746;2024-03-08T03:57:56;5.70;68.80
13328;DHT22;6733;51.044;3.746;2024-03-08T04:00:24;5.70;68.60
13328;DHT22;6733;51.044;3.746;2024-03-08T04:02:53;5.60;68.60
13328;DHT22;6733;51.044;3.746;2024-03-08T04:05:19;5.60;68.50
13328;DHT22;6733;51.044;3.746;2024-03-08T04:07:45;5.60;68.50
13328;DHT22;6733;51.044;3.746;2024-03-08T04:10:11;5.60;68.50
13328;DHT22;6733;51.044;3.746;2024-03-08T04:12:38;5.60;68.30
13328;DHT22;6733;51.044;3.746;2024-03-08T04:15:05;5.60;68.40
13328;DHT22;6733;51.044;3.746;2024-03-08T04:17:34;5.60;68.40
13328;DHT22;6733;51.044;3.746;2024-03-08T04:20:09;5.60;68.30
13328;DHT22;6733;51.044;3.746;2024-03-08T04:22:40;5.50;68.50
13328;DHT22;6733;51.044;3.746;2024-03-08T04:25:07;5.50;68.30
13328;DHT22;6733;51.044;3.746;2024-03-08T04:27:33;5.50;68.10
13328;DHT22;6733;51.044;3.746;2024-03-08T04:30:01;5.50;68.10
13328;DHT22;6733;51.044;3.746;2024-03-08T04:32:27;5.50;68.10
13328;DHT22;6733;51.044;3.746;2024-03-08T04:34:56;5.40;68.20
13328;DHT22;6733;51.044;3.746;2024-03-08T04:37:22;5.40;68.10
13328;DHT22;6733;51.044;3.746;2024-03-08T04:39:48;5.40;68.40
13328;DHT22;6733;51.044;3.746;2024-03-08T04:42:15;5.40;68.10
13328;DHT22;6733;51.044;3.746;2024-03-08T04:44:44;5.40;68.00
13328;DHT22;6733;51.044;3.746;2024-03-08T04:47:10;5.40;68.10
13328;DHT22;6733;51.044;3.746;2024-03-08T04:49:36;5.40;68.20
13328;DHT22;6733;51.044;3.746;2024-03-08T04:52:03;5.40;68.20
13328;DHT22;6733;51.044;3.746;2024-03-08T04:54:30;5.40;68.10
13328;DHT22;6733;51.044;3.746;2024-03-08T04:56:57;5.30;68.20
13328;DHT22;6733;51.044;3.746;2024-03-08T04:59:23;5.30;68.20
13328;DHT22;6733;51.044;3.746;2024-03-08T05:01:50;5.30;68.10
13328;DHT22;6733;51.044;3.746;2024-03-08T05:04:17;5.30;68.30
13328;DHT22;6733;51.044;3.746;2024-03-08T05:06:43;5.30;68.00
13328;DHT22;6733;51.044;3.746;2024-03-08T05:09:09;5.30;68.10
13328;DHT22;6733;51.044;3.746;2024-03-08T05:11:45;5.30;68.00
13328;DHT22;6733;51.044;3.746;2024-03-08T05:14:12;5.20;68.30
13328;DHT22;6733;51.044;3.746;2024-03-08T05:16:46;5.20;68.20
13328;DHT22;6733;51.044;3.746;2024-03-08T05:19:19;5.20;68.20
13328;DHT22;6733;51.044;3.746;2024-03-08T05:21:49;5.20;68.30
13328;DHT22;6733;51.044;3.746;2024-03-08T05:24:16;5.20;68.20
13328;DHT22;6733;51.044;3.746;2024-03-08T05:26:43;5.10;68.30
13328;DHT22;6733;51.044;3.746;2024-03-08T05:29:10;5.20;68.40
13328;DHT22;6733;51.044;3.746;2024-03-08T05:31:52;5.10;68.30
13328;DHT22;6733;51.044;3.746;2024-03-08T05:34:18;5.10;68.40
13328;DHT22;6733;51.044;3.746;2024-03-08T05:36:45;5.20;68.30
13328;DHT22;6733;51.044;3.746;2024-03-08T05:39:16;5.20;68.30
13328;DHT22;6733;51.044;3.746;2024-03-08T05:41:43;5.10;68.30
13328;DHT22;6733;51.044;3.746;2024-03-08T05:44:10;5.10;68.40
13328;DHT22;6733;51.044;3.746;2024-03-08T05:46:37;5.10;68.40
13328;DHT22;6733;51.044;3.746;2024-03-08T05:49:04;5.00;68.40
13328;DHT22;6733;51.044;3.746;2024-03-08T05:51:37;5.10;68.50
13328;DHT22;6733;51.044;3.746;2024-03-08T05:54:08;5.00;68.50
13328;DHT22;6733;51.044;3.746;2024-03-08T05:56:38;5.00;68.50
13328;DHT22;6733;51.044;3.746;2024-03-08T05:59:04;5.00;68.60
13328;DHT22;6733;51.044;3.746;2024-03-08T06:01:30;5.00;68.70
13328;DHT22;6733;51.044;3.746;2024-03-08T06:03:57;5.00;68.70
13328;DHT22;6733;51.044;3.746;2024-03-08T06:06:24;5.00;68.60
13328;DHT22;6733;51.044;3.746;2024-03-08T06:08:51;5.00;68.60
13328;DHT22;6733;51.044;3.746;2024-03-08T06:11:18;5.00;68.50
13328;DHT22;6733;51.044;3.746;2024-03-08T06:13:45;5.00;68.60
13328;DHT22;6733;51.044;3.746;2024-03-08T06:16:12;5.00;68.60
13328;DHT22;6733;51.044;3.746;2024-03-08T06:18:38;5.00;68.60
13328;DHT22;6733;51.044;3.746;2024-03-08T06:21:07;5.00;68.50
13328;DHT22;6733;51.044;3.746;2024-03-08T06:23:38;5.00;68.60
13328;DHT22;6733;51.044;3.746;2024-03-08T06:26:05;5.00;68.60
13328;DHT22;6733;51.044;3.746;2024-03-08T06:28:31;4.90;68.70
13328;DHT22;6733;51.044;3.746;2024-03-08T06:31:01;4.90;68.70
13328;DHT22;6733;51.044;3.746;2024-03-08T06:33:28;4.90;68.80
13328;DHT22;6733;51.044;3.746;2024-03-08T06:35:54;4.90;68.70
13328;DHT22;6733;51.044;3.746;2024-03-08T06:38:24;5.00;68.70
13328;DHT22;6733;51.044;3.746;2024-03-08T06:40:50;5.00;68.70
13328;DHT22;6733;51.044;3.746;2024-03-08T06:43:17;4.90;68.80
13328;DHT22;6733;51.044;3.746;2024-03-08T06:45:45;4.90;68.70
13328;DHT22;6733;51.044;3.746;2024-03-08T06:48:17;5.00;68.70
13328;DHT22;6733;51.044;3.746;2024-03-08T06:50:47;5.00;68.60
13328;DHT22;6733;51.044;3.746;2024-03-08T06:53:13;5.00;68.60
13328;DHT22;6733;51.044;3.746;2024-03-08T06:55:40;5.00;68.60
13328;DHT22;6733;51.044;3.746;2024-03-08T06:58:06;5.00;68.50
13328;DHT22;6733;51.044;3.746;2024-03-08T07:00:33;5.10;68.60
13328;DHT22;6733;51.044;3.746;2024-03-08T07:02:59;5.10;68.70
13328;DHT22;6733;51.044;3.746;2024-03-08T07:05:31;5.20;68.70
13328;DHT22;6733;51.044;3.746;2024-03-08T07:07:58;5.20;68.40
13328;DHT22;6733;51.044;3.746;2024-03-08T07:10:24;5.20;68.20
13328;DHT22;6733;51.044;3.746;2024-03-08T07:12:51;5.20;68.60
13328;DHT22;6733;51.044;3.746;2024-03-08T07:15:17;5.30;68.00
13328;DHT22;6733;51.044;3.746;2024-03-08T07:17:48;5.40;67.70
13328;DHT22;6733;51.044;3.746;2024-03-08T07:20:15;5.40;67.50
13328;DHT22;6733;51.044;3.746;2024-03-08T07:22:48;5.50;67.20
13328;DHT22;6733;51.044;3.746;2024-03-08T07:25:16;5.50;67.00
13328;DHT22;6733;51.044;3.746;2024-03-08T07:27:55;5.60;66.90
13328;DHT22;6733;51.044;3.746;2024-03-08T07:30:23;5.60;66.70
13328;DHT22;6733;51.044;3.746;2024-03-08T07:33:09;5.70;66.70
13328;DHT22;6733;51.044;3.746;2024-03-08T07:35:38;5.70;66.30
13328;DHT22;6733;51.044;3.746;2024-03-08T07:38:05;5.80;66.20
13328;DHT22;6733;51.044;3.746;2024-03-08T07:40:35;5.90;66.30
13328;DHT22;6733;51.044;3.746;2024-03-08T07:43:01;5.90;66.20
13328;DHT22;6733;51.044;3.746;2024-03-08T07:45:28;6.00;65.80
13328;DHT22;6733;51.044;3.746;2024-03-08T07:47:54;6.10;65.70
13328;DHT22;6733;51.044;3.746;2024-03-08T07:50:22;6.10;65.70
13328;DHT22;6733;51.044;3.746;2024-03-08T07:52:49;6.20;65.50
13328;DHT22;6733;51.044;3.746;2024-03-08T07:55:15;6.30;65.10
13328;DHT22;6733;51.044;3.746;2024-03-08T07:57:41;6.40;64.90
13328;DHT22;6733;51.044;3.746;2024-03-08T08:00:09;6.40;65.00
13328;DHT22;6733;51.044;3.746;2024-03-08T08:02:36;6.50;64.60
13328;DHT22;6733;51.044;3.746;2024-03-08T08:05:03;6.50;64.20
13328;DHT22;6733;51.044;3.746;2024-03-08T08:07:30;6.50;64.20
13328;DHT22;6733;51.044;3.746;2024-03-08T08:09:56;6.50;64.10
13328;DHT22;6733;51.044;3.746;2024-03-08T08:12:23;6.60;64.10
13328;DHT22;6733;51.044;3.746;2024-03-08T08:14:49;6.60;64.40
13328;DHT22;6733;51.044;3.746;2024-03-08T08:17:16;6.70;64.00
13328;DHT22;6733;51.044;3.746;2024-03-08T08:19:42;6.70;63.80
13328;DHT22;6733;51.044;3.746;2024-03-08T08:22:09;6.70;63.80
13328;DHT22;6733;51.044;3.746;2024-03-08T08:24:35;6.80;63.80
13328;DHT22;6733;51.044;3.746;2024-03-08T08:27:03;6.80;63.60
13328;DHT22;6733;51.044;3.746;2024-03-08T08:29:29;6.90;63.40
13328;DHT22;6733;51.044;3.746;2024-03-08T08:31:59;7.00;63.60
13328;DHT22;6733;51.044;3.746;2024-03-08T08:34:25;7.10;63.00
13328;DHT22;6733;51.044;3.746;2024-03-08T08:36:53;7.10;62.70
13328;DHT22;6733;51.044;3.746;2024-03-08T08:39:19;7.20;64.20
13328;DHT22;6733;51.044;3.746;2024-03-08T08:41:45;8.00;79.80
13328;DHT22;6733;51.044;3.746;2024-03-08T08:44:11;8.30;80.00
13328;DHT22;6733;51.044;3.746;2024-03-08T08:46:39;8.70;79.30
13328;DHT22;6733;51.044;3.746;2024-03-08T08:49:05;9.40;82.80
13328;DHT22;6733;51.044;3.746;2024-03-08T08:51:37;9.50;80.30
13328;DHT22;6733;51.044;3.746;2024-03-08T08:54:03;10.00;81.10
13328;DHT22;6733;51.044;3.746;2024-03-08T08:56:29;10.30;78.70
13328;DHT22;6733;51.044;3.746;2024-03-08T08:58:55;10.30;78.50
13328;DHT22;6733;51.044;3.746;2024-03-08T09:01:21;10.50;77.90
13328;DHT22;6733;51.044;3.746;2024-03-08T09:03:48;10.70;76.30
13328;DHT22;6733;51.044;3.746;2024-03-08T09:06:16;10.90;76.50
13328;DHT22;6733;51.044;3.746;2024-03-08T09:08:43;11.10;75.60
13328;DHT22;6733;51.044;3.746;2024-03-08T09:11:12;11.50;78.60
13328;DHT22;6733;51.044;3.746;2024-03-08T09:13:38;11.70;70.00
13328;DHT22;6733;51.044;3.746;2024-03-08T09:16:04;11.60;67.10
13328;DHT22;6733;51.044;3.746;2024-03-08T09:18:33;11.80;70.90
13328;DHT22;6733;51.044;3.746;2024-03-08T09:20:59;12.00;70.30
13328;DHT22;6733;51.044;3.746;2024-03-08T09:23:25;12.10;67.80
13328;DHT22;6733;51.044;3.746;2024-03-08T09:25:56;12.20;68.10
13328;DHT22;6733;51.044;3.746;2024-03-08T09:28:25;12.40;71.20
13328;DHT22;6733;51.044;3.746;2024-03-08T09:30:53;12.50;66.10
13328;DHT22;6733;51.044;3.746;2024-03-08T09:33:19;12.70;68.80
13328;DHT22;6733;51.044;3.746;2024-03-08T09:35:46;13.00;69.90
13328;DHT22;6733;51.044;3.746;2024-03-08T09:38:17;13.40;71.20
13328;DHT22;6733;51.044;3.746;2024-03-08T09:40:43;13.50;65.20
13328;DHT22;6733;51.044;3.746;2024-03-08T09:43:10;14.00;71.30
13328;DHT22;6733;51.044;3.746;2024-03-08T09:45:38;14.20;67.10
13328;DHT22;6733;51.044;3.746;2024-03-08T09:48:10;14.10;63.20
13328;DHT22;6733;51.044;3.746;2024-03-08T09:50:42;14.20;68.90
13328;DHT22;6733;51.044;3.746;2024-03-08T09:53:11;14.50;67.20
13328;DHT22;6733;51.044;3.746;2024-03-08T09:55:38;14.90;67.90
13328;DHT22;6733;51.044;3.746;2024-03-08T09:58:10;15.10;64.30
13328;DHT22;6733;51.044;3.746;2024-03-08T10:00:43;15.20;66.30
13328;DHT22;6733;51.044;3.746;2024-03-08T10:03:09;15.50;65.20
13328;DHT22;6733;51.044;3.746;2024-03-08T10:05:36;15.60;65.70
13328;DHT22;6733;51.044;3.746;2024-03-08T10:08:03;15.70;62.70
13328;DHT22;6733;51.044;3.746;2024-03-08T10:10:30;15.60;57.20
13328;DHT22;6733;51.044;3.746;2024-03-08T10:12:57;15.70;58.70
13328;DHT22;6733;51.044;3.746;2024-03-08T10:15:23;16.00;61.80
13328;DHT22;6733;51.044;3.746;2024-03-08T10:17:50;16.20;62.90
13328;DHT22;6733;51.044;3.746;2024-03-08T10:20:19;16.30;62.50
13328;DHT22;6733;51.044;3.746;2024-03-08T10:22:45;16.30;61.90
13328;DHT22;6733;51.044;3.746;2024-03-08T10:25:13;16.40;60.20
13328;DHT22;6733;51.044;3.746;2024-03-08T10:27:40;16.40;58.40
13328;DHT22;6733;51.044;3.746;2024-03-08T10:30:15;16.40;51.20
13328;DHT22;6733;51.044;3.746;2024-03-08T10:32:45;16.30;48.70
13328;DHT22;6733;51.044;3.746;2024-03-08T10:35:11;16.50;60.50
13328;DHT22;6733;51.044;3.746;2024-03-08T10:37:46;16.80;60.30
13328;DHT22;6733;51.044;3.746;2024-03-08T10:40:16;16.80;58.40
13328;DHT22;6733;51.044;3.746;2024-03-08T10:42:56;16.80;60.80
13328;DHT22;6733;51.044;3.746;2024-03-08T10:45:35;17.00;60.90
13328;DHT22;6733;51.044;3.746;2024-03-08T10:50:49;17.20;60.50
13328;DHT22;6733;51.044;3.746;2024-03-08T10:53:19;17.20;57.00
13328;DHT22;6733;51.044;3.746;2024-03-08T10:55:49;17.20;57.50
13328;DHT22;6733;51.044;3.746;2024-03-08T10:58:23;17.40;59.00
13328;DHT22;6733;51.044;3.746;2024-03-08T11:00:56;17.60;59.70
13328;DHT22;6733;51.044;3.746;2024-03-08T11:12:21;17.70;56.70
13328;DHT22;6733;51.044;3.746;2024-03-08T11:14:52;17.70;58.10
13328;DHT22;6733;51.044;3.746;2024-03-08T11:19:57;17.70;55.80
13328;DHT22;6733;51.044;3.746;2024-03-08T11:22:29;17.60;55.70
13328;DHT22;6733;51.044;3.746;2024-03-08T11:25:02;17.60;57.70
13328;DHT22;6733;51.044;3.746;2024-03-08T11:27:30;17.70;56.20
13328;DHT22;6733;51.044;3.746;2024-03-08T11:30:01;17.60;54.80
13328;DHT22;6733;51.044;3.746;2024-03-08T11:32:37;17.70;56.10
13328;DHT22;6733;51.044;3.746;2024-03-08T11:35:07;17.70;51.10
13328;DHT22;6733;51.044;3.746;2024-03-08T11:37:44;17.60;55.00
13328;DHT22;6733;51.044;3.746;2024-03-08T11:40:14;17.70;57.20
13328;DHT22;6733;51.044;3.746;2024-03-08T11:42:48;17.90;56.30
13328;DHT22;6733;51.044;3.746;2024-03-08T11:45:16;17.90;57.40
13328;DHT22;6733;51.044;3.746;2024-03-08T11:47:44;17.90;57.10
13328;DHT22;6733;51.044;3.746;2024-03-08T11:50:13;17.90;57.70
13328;DHT22;6733;51.044;3.746;2024-03-08T11:52:39;17.90;57.90
13328;DHT22;6733;51.044;3.746;2024-03-08T11:55:06;17.90;54.20
13328;DHT22;6733;51.044;3.746;2024-03-08T11:57:33;17.90;53.80
13328;DHT22;6733;51.044;3.746;2024-03-08T11:59:59;17.80;53.00
13328;DHT22;6733;51.044;3.746;2024-03-08T12:02:34;17.80;54.40
13328;DHT22;6733;51.044;3.746;2024-03-08T12:05:06;17.80;54.90
13328;DHT22;6733;51.044;3.746;2024-03-08T12:07:34;17.90;57.10
13328;DHT22;6733;51.044;3.746;2024-03-08T12:10:16;17.90;57.10
13328;DHT22;6733;51.044;3.746;2024-03-08T12:12:47;18.00;57.00
13328;DHT22;6733;51.044;3.746;2024-03-08T12:15:15;17.90;53.10
13328;DHT22;6733;51.044;3.746;2024-03-08T12:17:41;17.90;57.40
13328;DHT22;6733;51.044;3.746;2024-03-08T12:20:19;17.80;56.50
13328;DHT22;6733;51.044;3.746;2024-03-08T12:22:48;18.00;57.80
13328;DHT22;6733;51.044;3.746;2024-03-08T12:25:15;18.00;56.20
13328;DHT22;6733;51.044;3.746;2024-03-08T12:27:43;17.90;55.10
13328;DHT22;6733;51.044;3.746;2024-03-08T12:30:21;17.80;53.00
13328;DHT22;6733;51.044;3.746;2024-03-08T12:32:58;17.90;53.60
13328;DHT22;6733;51.044;3.746;2024-03-08T12:35:26;17.90;56.80
13328;DHT22;6733;51.044;3.746;2024-03-08T12:37:54;17.80;51.50
13328;DHT22;6733;51.044;3.746;2024-03-08T12:40:31;17.80;56.70
13328;DHT22;6733;51.044;3.746;2024-03-08T12:43:01;17.60;47.20
13328;DHT22;6733;51.044;3.746;2024-03-08T12:45:27;17.70;55.60
13328;DHT22;6733;51.044;3.746;2024-03-08T12:47:54;17.80;53.20
13328;DHT22;6733;51.044;3.746;2024-03-08T12:50:22;17.70;53.30
13328;DHT22;6733;51.044;3.746;2024-03-08T12:52:49;17.80;55.90
13328;DHT22;6733;51.044;3.746;2024-03-08T12:55:15;17.90;57.90
13328;DHT22;6733;51.044;3.746;2024-03-08T12:57:44;17.90;52.40
13328;DHT22;6733;51.044;3.746;2024-03-08T13:00:11;17.80;56.70
13328;DHT22;6733;51.044;3.746;2024-03-08T13:02:46;17.70;50.50
13328;DHT22;6733;51.044;3.746;2024-03-08T13:05:12;17.70;55.00
13328;DHT22;6733;51.044;3.746;2024-03-08T13:07:41;17.70;57.30
13328;DHT22;6733;51.044;3.746;2024-03-08T13:10:15;17.80;58.00
13328;DHT22;6733;51.044;3.746;2024-03-08T13:12:45;17.70;57.00
13328;DHT22;6733;51.044;3.746;2024-03-08T13:15:11;17.80;52.20
13328;DHT22;6733;51.044;3.746;2024-03-08T13:17:42;17.80;57.10
13328;DHT22;6733;51.044;3.746;2024-03-08T13:20:09;17.80;56.70
13328;DHT22;6733;51.044;3.746;2024-03-08T13:22:35;17.80;56.70
13328;DHT22;6733;51.044;3.746;2024-03-08T13:25:02;17.70;56.30
13328;DHT22;6733;51.044;3.746;2024-03-08T13:27:29;17.60;56.10
13328;DHT22;6733;51.044;3.746;2024-03-08T13:29:55;17.60;57.50
13328;DHT22;6733;51.044;3.746;2024-03-08T13:32:21;17.70;55.20
13328;DHT22;6733;51.044;3.746;2024-03-08T13:34:48;17.70;57.70
13328;DHT22;6733;51.044;3.746;2024-03-08T13:37:17;17.60;57.20
13328;DHT22;6733;51.044;3.746;2024-03-08T13:39:43;17.60;56.80
13328;DHT22;6733;51.044;3.746;2024-03-08T13:42:11;17.60;57.20
13328;DHT22;6733;51.044;3.746;2024-03-08T13:44:43;17.70;57.40
13328;DHT22;6733;51.044;3.746;2024-03-08T13:47:09;17.60;56.50
13328;DHT22;6733;51.044;3.746;2024-03-08T13:49:38;17.60;57.80
13328;DHT22;6733;51.044;3.746;2024-03-08T13:52:04;17.60;57.10
13328;DHT22;6733;51.044;3.746;2024-03-08T13:54:30;17.60;56.90
13328;DHT22;6733;51.044;3.746;2024-03-08T13:57:00;17.60;56.00
13328;DHT22;6733;51.044;3.746;2024-03-08T13:59:26;17.50;55.90
13328;DHT22;6733;51.044;3.746;2024-03-08T14:01:56;17.50;56.90
13328;DHT22;6733;51.044;3.746;2024-03-08T14:04:23;17.50;57.30
13328;DHT22;6733;51.044;3.746;2024-03-08T14:06:50;17.50;56.60
13328;DHT22;6733;51.044;3.746;2024-03-08T14:09:17;17.50;55.80
13328;DHT22;6733;51.044;3.746;2024-03-08T14:11:43;17.50;57.50
13328;DHT22;6733;51.044;3.746;2024-03-08T14:14:13;17.60;56.80
13328;DHT22;6733;51.044;3.746;2024-03-08T14:16:39;17.70;57.80
13328;DHT22;6733;51.044;3.746;2024-03-08T14:19:06;17.90;56.20
13328;DHT22;6733;51.044;3.746;2024-03-08T14:21:32;18.00;57.30
13328;DHT22;6733;51.044;3.746;2024-03-08T14:23:59;18.20;56.10
13328;DHT22;6733;51.044;3.746;2024-03-08T14:26:25;18.30;55.40
13328;DHT22;6733;51.044;3.746;2024-03-08T14:28:52;18.50;54.30
13328;DHT22;6733;51.044;3.746;2024-03-08T14:31:20;18.60;53.70
13328;DHT22;6733;51.044;3.746;2024-03-08T14:33:49;18.70;53.90
13328;DHT22;6733;51.044;3.746;2024-03-08T14:36:15;18.90;52.10
13328;DHT22;6733;51.044;3.746;2024-03-08T14:38:46;19.10;52.30
13328;DHT22;6733;51.044;3.746;2024-03-08T14:41:15;19.30;51.30
13328;DHT22;6733;51.044;3.746;2024-03-08T14:43:44;19.60;52.20
13328;DHT22;6733;51.044;3.746;2024-03-08T14:46:12;19.80;49.30
13328;DHT22;6733;51.044;3.746;2024-03-08T14:48:47;19.90;52.10
13328;DHT22;6733;51.044;3.746;2024-03-08T14:51:13;20.10;47.00
13328;DHT22;6733;51.044;3.746;2024-03-08T14:53:40;20.30;51.20
13328;DHT22;6733;51.044;3.746;2024-03-08T14:56:08;20.40;50.80
13328;DHT22;6733;51.044;3.746;2024-03-08T14:58:35;20.70;51.20
13328;DHT22;6733;51.044;3.746;2024-03-08T15:01:01;20.80;47.50
13328;DHT22;6733;51.044;3.746;2024-03-08T15:03:28;21.00;47.00
13328;DHT22;6733;51.044;3.746;2024-03-08T15:05:55;21.30;47.00
13328;DHT22;6733;51.044;3.746;2024-03-08T15:08:22;21.50;46.40
13328;DHT22;6733;51.044;3.746;2024-03-08T15:10:50;21.60;47.50
13328;DHT22;6733;51.044;3.746;2024-03-08T15:13:20;21.60;46.50
13328;DHT22;6733;51.044;3.746;2024-03-08T15:15:53;21.80;47.50
13328;DHT22;6733;51.044;3.746;2024-03-08T15:18:24;21.80;44.60
13328;DHT22;6733;51.044;3.746;2024-03-08T15:21:00;21.80;45.80
13328;DHT22;6733;51.044;3.746;2024-03-08T15:23:26;21.70;47.30
13328;DHT22;6733;51.044;3.746;2024-03-08T15:25:53;21.80;45.60
13328;DHT22;6733;51.044;3.746;2024-03-08T15:28:19;21.90;45.40
13328;DHT22;6733;51.044;3.746;2024-03-08T15:30:46;22.20;44.90
13328;DHT22;6733;51.044;3.746;2024-03-08T15:33:17;22.40;46.20
13328;DHT22;6733;51.044;3.746;2024-03-08T15:35:50;22.60;42.50
13328;DHT22;6733;51.044;3.746;2024-03-08T15:38:24;22.90;43.70
13328;DHT22;6733;51.044;3.746;2024-03-08T15:40:54;22.90;44.70
13328;DHT22;6733;51.044;3.746;2024-03-08T15:43:21;23.00;41.30
13328;DHT22;6733;51.044;3.746;2024-03-08T15:45:48;23.20;44.50
13328;DHT22;6733;51.044;3.746;2024-03-08T15:48:14;23.30;44.10
13328;DHT22;6733;51.044;3.746;2024-03-08T15:50:42;23.40;44.30
13328;DHT22;6733;51.044;3.746;2024-03-08T15:53:08;23.10;44.20
13328;DHT22;6733;51.044;3.746;2024-03-08T15:55:38;23.10;44.50
13328;DHT22;6733;51.044;3.746;2024-03-08T15:58:07;23.10;43.00
13328;DHT22;6733;51.044;3.746;2024-03-08T16:00:33;23.00;45.20
13328;DHT22;6733;51.044;3.746;2024-03-08T16:03:05;23.00;45.60
13328;DHT22;6733;51.044;3.746;2024-03-08T16:05:42;22.60;43.40
13328;DHT22;6733;51.044;3.746;2024-03-08T16:08:10;22.00;45.80
13328;DHT22;6733;51.044;3.746;2024-03-08T16:10:45;21.60;47.00
13328;DHT22;6733;51.044;3.746;2024-03-08T16:13:15;20.80;47.90
13328;DHT22;6733;51.044;3.746;2024-03-08T16:15:44;20.30;50.30
13328;DHT22;6733;51.044;3.746;2024-03-08T16:18:14;19.80;46.20